Time;durP1;ratioP1;P1;durP2;ratioP2;P2;SDS_P1;SDS_P2;PMS_P1;PMS_P2;Temp;Humidity;BMP_temperature;BMP_pressure;BME280_temperature;BME280_humidity;BME280_pressure;Samples;Min_cycle;Max_cycle;Signal;HPM_P1;HPM_P2
2023/07/09 00:01:17;;;;;;;4.83;3.63;;;;;;;21.78;61.38;95256.59;4843332;29;20460;-79
2023/07/09 00:03:53;;;;;;;3.90;3.50;;;;;;;21.82;60.52;95256.03;4850904;29;21009;-79
2023/07/09 00:06:21;;;;;;;5.07;3.90;;;;;;;21.83;61.25;95256.84;4893397;28;20451;-79
2023/07/09 00:08:49;;;;;;;5.00;4.50;;;;;;;21.85;61.67;95247.63;5010540;28;20442;-79
2023/07/09 00:11:17;;;;;;;8.47;4.37;;;;;;;21.91;62.86;95251.38;5013864;28;20454;-80
2023/07/09 00:13:44;;;;;;;6.20;4.30;;;;;;;21.92;62.77;95251.19;5013846;28;20458;-79
2023/07/09 00:16:26;;;;;;;4.53;4.03;;;;;;;21.93;63.59;95241.31;5014626;28;20455;-79
2023/07/09 00:18:52;;;;;;;6.00;4.60;;;;;;;21.94;63.56;95246.47;5027500;28;20861;-80
2023/07/09 00:21:22;;;;;;;5.50;4.63;;;;;;;21.89;65.35;95240.06;5029181;28;20457;-79
2023/07/09 00:23:49;;;;;;;4.63;4.10;;;;;;;21.90;65.08;95237.19;5029265;28;20485;-79
2023/07/09 00:26:20;;;;;;;6.80;4.20;;;;;;;21.88;65.60;95233.06;5028985;28;20466;-79
2023/07/09 00:28:47;;;;;;;6.97;4.20;;;;;;;21.84;65.28;95239.81;5106765;28;20439;-79
2023/07/09 00:31:18;;;;;;;4.90;4.50;;;;;;;21.83;66.16;95235.47;5132269;28;20467;-79
2023/07/09 00:33:46;;;;;;;4.93;4.43;;;;;;;21.78;65.74;95237.91;5132021;28;20458;-80
2023/07/09 00:36:16;;;;;;;4.30;3.90;;;;;;;21.69;66.15;95220.34;5131023;28;20474;-78
2023/07/09 00:38:47;;;;;;;8.93;4.47;;;;;;;21.68;66.61;95234.69;5130955;28;20433;-79
2023/07/09 00:41:18;;;;;;;8.43;4.50;;;;;;;21.57;67.78;95220.84;5054764;28;20438;-80
2023/07/09 00:43:47;;;;;;;4.30;3.70;;;;;;;21.58;66.99;95227.00;5124975;28;20547;-79
2023/07/09 00:46:37;;;;;;;4.40;4.00;;;;;;;21.53;67.42;95224.09;5131192;28;20438;-80
2023/07/09 00:49:08;;;;;;;7.20;4.47;;;;;;;21.40;67.78;95227.44;5130666;28;20442;-79
2023/07/09 00:51:41;;;;;;;5.57;4.03;;;;;;;21.31;67.04;95225.88;5130753;28;20498;-79
2023/07/09 00:54:15;;;;;;;6.10;3.83;;;;;;;21.23;67.28;95228.66;5129354;28;20445;-79
2023/07/09 00:56:46;;;;;;;6.80;5.13;;;;;;;21.17;67.69;95226.72;5120367;28;20452;-79
2023/07/09 00:59:18;;;;;;;6.30;4.07;;;;;;;21.07;67.29;95212.84;5081600;28;20435;-79
2023/07/09 01:01:50;;;;;;;4.93;4.40;;;;;;;21.09;67.95;95229.47;5115663;28;20931;-80
2023/07/09 01:07:49;;;;;;;6.33;4.50;;;;;;;21.04;67.48;95224.72;5052155;28;20573;-79
2023/07/09 01:10:20;;;;;;;5.10;4.67;;;;;;;21.03;67.43;95228.38;4953873;29;20452;-80
2023/07/09 01:12:49;;;;;;;5.57;4.33;;;;;;;21.01;67.21;95225.91;4954013;29;20464;-79
2023/07/09 01:15:16;;;;;;;6.50;4.20;;;;;;;21.01;67.14;95233.91;4953932;29;20455;-79
2023/07/09 01:17:44;;;;;;;7.70;5.60;;;;;;;20.98;67.36;95236.97;4954024;29;20447;-79
2023/07/09 01:20:20;;;;;;;7.90;5.23;;;;;;;20.98;67.64;95220.94;4954145;29;20447;-79
2023/07/09 01:22:50;;;;;;;6.43;4.90;;;;;;;20.92;66.72;95210.19;4953621;29;20532;-79
2023/07/09 01:25:17;;;;;;;8.57;4.80;;;;;;;20.94;66.84;95225.00;4906684;29;20452;-78
2023/07/09 01:27:46;;;;;;;8.20;5.70;;;;;;;20.93;67.12;95223.34;4953813;29;20447;-81
2023/07/09 01:30:19;;;;;;;8.13;4.80;;;;;;;20.88;67.80;95224.94;4953781;29;20530;-80
2023/07/09 01:35:52;;;;;;;5.20;4.70;;;;;;;20.82;67.79;95226.50;4840561;29;21011;-79
2023/07/09 01:44:41;;;;;;;5.77;4.87;;;;;;;20.59;68.71;95231.91;4836602;29;20544;-80
2023/07/09 01:47:08;;;;;;;6.43;5.20;;;;;;;20.39;70.19;95233.41;4873028;28;20455;-80
2023/07/09 01:49:35;;;;;;;7.10;5.57;;;;;;;20.27;71.44;95243.72;4972791;28;20452;-80
2023/07/09 01:52:03;;;;;;;8.67;5.70;;;;;;;20.22;71.84;95242.56;4972397;28;20452;-80
2023/07/09 01:54:37;;;;;;;5.93;5.47;;;;;;;20.17;72.21;95243.09;4972903;28;20455;-80
2023/07/09 01:57:32;;;;;;;5.30;4.80;;;;;;;20.13;72.82;95243.66;4972768;28;20445;-80
2023/07/09 02:02:50;;;;;;;6.77;5.00;;;;;;;20.00;74.03;95241.63;5051252;28;21079;-80
2023/07/09 02:05:34;;;;;;;7.10;5.40;;;;;;;19.92;74.23;95244.31;5050341;28;20576;-79
2023/07/09 02:08:26;;;;;;;10.83;6.10;;;;;;;19.87;74.86;95236.03;5051206;28;20451;-80
2023/07/09 02:10:54;;;;;;;5.33;4.47;;;;;;;19.65;74.45;95243.84;5011403;28;20445;-80
2023/07/09 02:13:20;;;;;;;6.07;4.70;;;;;;;19.66;75.45;95242.00;5046499;28;20452;-80
2023/07/09 02:15:47;;;;;;;7.17;5.10;;;;;;;19.62;74.66;95244.19;5034295;28;20438;-80
2023/07/09 02:18:14;;;;;;;5.00;4.60;;;;;;;19.62;75.05;95248.69;5051074;28;20438;-78
2023/07/09 02:20:41;;;;;;;6.23;4.77;;;;;;;19.44;75.78;95249.78;5050963;28;20847;-79
2023/07/09 02:25:49;;;;;;;7.90;5.43;;;;;;;19.28;77.02;95257.03;4991500;28;20441;-80
2023/07/09 02:28:18;;;;;;;8.90;5.80;;;;;;;19.27;77.80;95255.38;4991325;28;20439;-80
2023/07/09 02:30:44;;;;;;;7.73;5.50;;;;;;;19.28;78.12;95257.03;4991395;28;20444;-80
2023/07/09 02:33:11;;;;;;;5.87;5.37;;;;;;;19.14;78.84;95255.94;4991359;28;20864;-79
2023/07/09 02:35:38;;;;;;;9.87;5.43;;;;;;;19.13;79.34;95260.44;4991268;28;20501;-80
2023/07/09 02:38:05;;;;;;;7.47;6.33;;;;;;;19.15;79.90;95265.59;4991216;28;20943;-80
2023/07/09 02:40:33;;;;;;;6.23;5.60;;;;;;;19.12;79.52;95264.09;4991100;28;20447;-79
2023/07/09 02:43:00;;;;;;;10.47;6.10;;;;;;;19.11;79.77;95269.59;4991293;28;20482;-79
2023/07/09 02:45:28;;;;;;;8.13;5.60;;;;;;;19.14;79.65;95267.41;4990835;28;20490;-78
2023/07/09 02:47:55;;;;;;;6.47;5.83;;;;;;;19.15;79.24;95265.59;5018159;28;20541;-79
2023/07/09 02:50:22;;;;;;;10.70;5.60;;;;;;;19.18;79.09;95279.38;5050064;28;20997;-80
2023/07/09 02:52:49;;;;;;;7.53;5.97;;;;;;;19.21;78.55;95275.53;5050640;28;20467;-79
2023/07/09 02:55:15;;;;;;;6.00;5.30;;;;;;;19.22;77.91;95277.19;5050591;28;20454;-80
2023/07/09 02:57:42;;;;;;;5.20;4.80;;;;;;;19.24;77.90;95269.03;5108894;28;20431;-79
2023/07/09 03:00:10;;;;;;;5.97;4.60;;;;;;;19.25;77.55;95276.84;5113327;28;20446;-79
2023/07/09 03:02:53;;;;;;;6.67;5.20;;;;;;;19.24;76.70;95275.19;5113025;28;20453;-79
2023/07/09 03:05:20;;;;;;;11.83;5.10;;;;;;;19.27;77.18;95276.66;5030108;28;20493;-79
2023/07/09 03:11:11;;;;;;;9.23;5.00;;;;;;;19.24;75.31;95287.66;4886883;29;20438;-78
2023/07/09 03:14:03;;;;;;;5.80;5.40;;;;;;;19.13;75.95;95292.38;4848987;29;20448;-79
2023/07/09 03:19:57;;;;;;;5.90;5.30;;;;;;;19.00;76.56;95289.41;4843382;29;20987;-80
2023/07/09 03:22:24;;;;;;;7.00;4.40;;;;;;;18.93;77.31;95284.94;4843405;29;20439;-80
2023/07/09 03:24:51;;;;;;;6.40;5.03;;;;;;;18.93;77.50;95291.09;4843061;29;20495;-80
2023/07/09 03:27:18;;;;;;;6.37;4.53;;;;;;;18.94;77.15;95292.75;4843026;29;20458;-80
2023/07/09 03:29:45;;;;;;;6.73;4.53;;;;;;;18.91;77.30;95293.09;4812738;29;20461;-79
2023/07/09 03:32:11;;;;;;;5.47;4.50;;;;;;;19.21;76.90;95293.31;4842932;29;20456;-80
2023/07/09 03:34:38;;;;;;;5.27;4.73;;;;;;;19.56;76.96;95292.84;4842875;29;20463;-80
2023/07/09 03:37:06;;;;;;;8.27;4.90;;;;;;;20.02;74.62;95290.22;4842617;29;20495;-79
2023/07/09 03:39:33;;;;;;;9.20;4.47;;;;;;;20.45;73.33;95298.53;4842684;29;20455;-79
2023/07/09 03:42:00;;;;;;;7.03;4.73;;;;;;;20.96;71.88;95292.34;4858938;29;20451;-80
2023/07/09 03:44:27;;;;;;;6.50;4.60;;;;;;;21.37;68.97;95291.88;4917333;29;20502;-80
2023/07/09 03:46:54;;;;;;;6.63;4.90;;;;;;;21.77;68.19;95295.03;4925090;28;20968;-80
2023/07/09 03:49:20;;;;;;;5.33;4.83;;;;;;;22.09;65.80;95291.91;5033489;28;20449;-81
2023/07/09 03:51:47;;;;;;;6.00;5.30;;;;;;;22.43;65.51;95298.38;5033544;28;20457;-80
2023/07/09 03:54:15;;;;;;;6.13;5.53;;;;;;;22.72;63.52;95300.03;5033475;28;20449;-81
2023/07/09 03:56:42;;;;;;;7.23;5.20;;;;;;;22.77;61.91;95302.94;5100554;28;20456;-77
2023/07/09 03:59:09;;;;;;;5.63;5.03;;;;;;;22.67;62.24;95305.97;5116050;28;20443;-81
2023/07/09 04:01:36;;;;;;;4.23;3.83;;;;;;;22.74;62.90;95303.34;5115961;28;20959;-80
2023/07/09 04:04:03;;;;;;;7.97;4.70;;;;;;;22.90;61.39;95302.25;5115823;28;20486;-80
2023/07/09 04:06:29;;;;;;;4.60;4.20;;;;;;;22.91;62.10;95298.56;5116310;28;20453;-80
2023/07/09 04:08:56;;;;;;;6.03;4.27;;;;;;;22.92;62.09;95297.53;5115954;28;20458;-78
2023/07/09 04:11:24;;;;;;;4.73;4.30;;;;;;;22.98;61.01;95308.28;5115814;28;20443;-79
2023/07/09 04:13:51;;;;;;;7.33;4.17;;;;;;;22.96;60.40;95313.00;5115922;28;20506;-80
2023/07/09 04:16:18;;;;;;;5.17;4.20;;;;;;;22.98;61.12;95310.94;5116364;28;20813;-78
2023/07/09 04:18:45;;;;;;;4.63;4.33;;;;;;;23.01;60.44;95309.72;5116089;28;20437;-81
2023/07/09 04:21:12;;;;;;;5.13;4.30;;;;;;;23.10;60.76;95317.41;5080429;28;20452;-80
2023/07/09 04:23:38;;;;;;;4.57;4.10;;;;;;;23.17;59.25;95317.47;5063631;28;20443;-80
2023/07/09 04:26:09;;;;;;;7.17;5.17;;;;;;;23.23;59.96;95330.06;5115956;28;20446;-80
2023/07/09 04:28:37;;;;;;;5.17;4.43;;;;;;;23.12;61.31;95311.84;5115180;28;20495;-80
2023/07/09 04:31:04;;;;;;;5.23;4.40;;;;;;;23.15;62.73;95327.53;5116019;28;20441;-80
2023/07/09 04:33:30;;;;;;;6.37;4.50;;;;;;;23.32;62.92;95325.34;5115744;28;20963;-81
2023/07/09 04:35:59;;;;;;;5.23;4.80;;;;;;;23.64;63.06;95326.56;5115807;28;20479;-80
2023/07/09 04:38:25;;;;;;;9.77;5.67;;;;;;;24.00;61.72;95339.69;5115657;28;20852;-79
2023/07/09 04:40:52;;;;;;;5.70;5.20;;;;;;;24.18;60.52;95331.06;5115494;28;20465;-80
2023/07/09 04:43:19;;;;;;;5.97;5.10;;;;;;;24.37;60.05;95339.19;5115623;28;20457;-80
2023/07/09 04:45:49;;;;;;;4.63;4.33;;;;;;;24.50;59.49;95338.38;5115367;28;20879;-80
2023/07/09 04:48:15;;;;;;;7.03;5.67;;;;;;;24.37;59.72;95338.38;5115506;28;20816;-80
2023/07/09 04:50:42;;;;;;;12.07;5.53;;;;;;;24.21;60.08;95330.66;5115096;28;20439;-80
2023/07/09 04:53:11;;;;;;;7.20;6.13;;;;;;;24.12;59.91;95339.94;5114953;28;20453;-81
2023/07/09 04:55:39;;;;;;;10.90;6.40;;;;;;;23.93;60.00;95331.63;5115090;28;20564;-81
2023/07/09 04:58:06;;;;;;;6.63;5.90;;;;;;;23.88;61.53;95333.25;5063351;28;20504;-80
2023/07/09 05:00:32;;;;;;;6.73;5.40;;;;;;;23.81;62.51;95338.59;5114956;28;20449;-80
2023/07/09 05:03:01;;;;;;;8.70;6.17;;;;;;;23.82;62.26;95334.88;5115163;28;20451;-80
2023/07/09 05:05:27;;;;;;;7.80;6.23;;;;;;;23.89;62.09;95340.28;5114660;28;20493;-80
2023/07/09 05:07:54;;;;;;;8.90;6.40;;;;;;;24.05;60.98;95340.75;5114774;28;20807;-79
2023/07/09 05:10:21;;;;;;;8.60;7.07;;;;;;;23.42;63.13;95336.56;5114714;28;20446;-80
2023/07/09 05:12:50;;;;;;;6.90;5.63;;;;;;;23.03;65.22;95343.31;5114711;28;20827;-80
2023/07/09 05:15:18;;;;;;;8.10;6.07;;;;;;;22.93;66.39;95339.34;5114744;28;20532;-80
2023/07/09 05:17:45;;;;;;;8.83;7.03;;;;;;;22.73;67.39;95336.47;5114599;28;20449;-80
2023/07/09 05:20:13;;;;;;;6.43;5.83;;;;;;;22.49;66.92;95340.38;5114634;28;20501;-80
2023/07/09 05:22:40;;;;;;;7.30;6.20;;;;;;;22.10;67.87;95343.50;5115040;28;20521;-80
2023/07/09 05:25:07;;;;;;;7.33;6.20;;;;;;;22.03;68.39;95338.06;5115589;28;20482;-79
2023/07/09 05:27:34;;;;;;;9.50;6.00;;;;;;;22.22;68.09;95342.81;5115276;28;20873;-79
2023/07/09 05:30:01;;;;;;;7.80;6.47;;;;;;;22.46;68.47;95343.44;5114544;28;20446;-81
2023/07/09 05:32:28;;;;;;;7.10;6.07;;;;;;;22.69;67.10;95340.56;5078506;28;20478;-81
2023/07/09 05:34:54;;;;;;;5.93;5.43;;;;;;;22.73;67.90;95339.16;5078268;28;20454;-80
2023/07/09 05:37:23;;;;;;;7.53;5.77;;;;;;;22.79;67.22;95339.19;5078191;28;20446;-80
2023/07/09 05:39:49;;;;;;;6.77;6.17;;;;;;;22.60;66.34;95333.69;5113931;28;20456;-79
2023/07/09 05:42:16;;;;;;;7.23;6.10;;;;;;;22.98;66.09;95336.88;5061882;28;20436;-80
2023/07/09 05:44:43;;;;;;;8.50;6.40;;;;;;;23.32;63.19;95330.72;5114103;28;20489;-80
2023/07/09 05:47:10;;;;;;;11.27;6.00;;;;;;;23.88;62.02;95333.25;5114003;28;20437;-80
2023/07/09 05:49:37;;;;;;;11.00;6.60;;;;;;;24.58;61.52;95340.88;5113821;28;20442;-79
2023/07/09 05:52:04;;;;;;;7.77;6.13;;;;;;;25.09;59.83;95344.78;5113968;28;20435;-78
2023/07/09 05:54:32;;;;;;;7.47;6.30;;;;;;;25.69;58.06;95343.63;5113935;28;20461;-80
2023/07/09 05:56:59;;;;;;;13.93;6.27;;;;;;;26.19;56.42;95338.44;5113825;28;20446;-80
2023/07/09 05:59:26;;;;;;;6.50;5.57;;;;;;;26.88;54.71;95342.94;5114429;28;20880;-80
2023/07/09 06:01:53;;;;;;;7.30;6.13;;;;;;;27.55;53.03;95335.91;5114031;28;20454;-80
2023/07/09 06:04:19;;;;;;;8.50;6.03;;;;;;;27.99;52.81;95339.34;5113399;28;21039;-80
2023/07/09 06:06:49;;;;;;;8.40;5.77;;;;;;;27.63;54.71;95330.25;5113913;28;20447;-80
2023/07/09 06:09:16;;;;;;;8.60;6.40;;;;;;;27.23;54.90;95337.09;5113736;28;20439;-80
2023/07/09 06:11:44;;;;;;;11.10;6.87;;;;;;;27.30;55.58;95324.38;5077848;28;20443;-81
2023/07/09 06:14:11;;;;;;;12.73;6.40;;;;;;;27.63;56.03;95330.25;5113574;28;20477;-80
2023/07/09 06:16:38;;;;;;;8.07;6.60;;;;;;;27.87;54.02;95333.09;5113483;28;20450;-80
2023/07/09 06:19:05;;;;;;;8.07;5.87;;;;;;;28.08;54.71;95327.22;5113363;28;20854;-80
2023/07/09 06:21:32;;;;;;;5.63;5.13;;;;;;;28.36;49.86;95321.25;5113653;28;20441;-80
2023/07/09 06:23:58;;;;;;;12.40;3.80;;;;;;;28.51;44.88;95315.41;5113653;28;20850;-80
2023/07/09 06:26:25;;;;;;;6.07;4.10;;;;;;;28.29;44.58;95318.63;5113229;28;20490;-80
2023/07/09 06:28:53;;;;;;;5.33;4.80;;;;;;;27.96;44.53;95318.22;5113261;28;20970;-80
2023/07/09 06:31:20;;;;;;;7.43;4.60;;;;;;;27.94;44.85;95318.44;5112861;28;20499;-80
2023/07/09 06:33:48;;;;;;;11.33;4.80;;;;;;;27.92;45.35;95317.03;5113402;28;20512;-80
2023/07/09 06:36:15;;;;;;;6.47;4.60;;;;;;;27.88;46.28;95307.75;5113173;28;20489;-79
2023/07/09 06:38:42;;;;;;;9.83;4.40;;;;;;;27.85;45.31;95305.50;5113304;28;20447;-79
2023/07/09 06:41:08;;;;;;;5.73;4.57;;;;;;;27.32;45.88;95316.88;5113337;28;20896;-79
2023/07/09 06:43:38;;;;;;;4.60;4.20;;;;;;;27.27;46.44;95314.84;5113085;28;20552;-77
2023/07/09 06:46:08;;;;;;;6.23;4.10;;;;;;;27.55;47.03;95313.53;5113081;28;20474;-80
2023/07/09 06:48:35;;;;;;;5.00;4.20;;;;;;;27.86;46.04;95312.56;5113190;28;20848;-80
2023/07/09 06:51:02;;;;;;;4.67;4.17;;;;;;;27.72;45.62;95315.41;5113043;28;20443;-79
2023/07/09 06:53:29;;;;;;;5.83;4.30;;;;;;;27.74;45.77;95316.00;5078094;28;20454;-79
2023/07/09 06:55:58;;;;;;;7.50;4.07;;;;;;;27.58;46.86;95310.38;5114005;28;20419;-78
2023/07/09 06:58:28;;;;;;;6.97;4.47;;;;;;;27.70;48.01;95316.69;5077188;28;20431;-80
2023/07/09 07:00:55;;;;;;;10.90;5.77;;;;;;;27.96;45.67;95319.03;5112939;28;20925;-79
2023/07/09 07:03:25;;;;;;;6.70;4.43;;;;;;;27.84;45.66;95315.47;5077600;28;20860;-80
2023/07/09 07:05:54;;;;;;;5.07;4.63;;;;;;;27.84;45.74;95314.66;5112955;28;20483;-80
2023/07/09 07:08:23;;;;;;;4.27;3.87;;;;;;;27.77;44.20;95318.28;5113221;28;20450;-80
2023/07/09 07:10:51;;;;;;;4.00;3.60;;;;;;;27.89;44.18;95306.69;5077283;28;20470;-80
2023/07/09 07:13:18;;;;;;;7.93;4.80;;;;;;;27.79;45.46;95307.25;5113128;28;20550;-80
2023/07/09 07:15:49;;;;;;;4.53;4.13;;;;;;;27.99;44.63;95317.75;5115539;28;20438;-80
2023/07/09 07:18:17;;;;;;;7.30;4.33;;;;;;;28.09;44.84;95312.66;5116238;28;20450;-80
2023/07/09 07:20:48;;;;;;;4.97;4.57;;;;;;;28.42;44.40;95301.41;5116143;28;20530;-81
2023/07/09 07:23:17;;;;;;;4.77;4.33;;;;;;;28.64;43.91;95307.94;5113704;28;20518;-80
2023/07/09 07:25:46;;;;;;;5.07;4.40;;;;;;;28.89;43.34;95307.75;5113085;28;20570;-81
2023/07/09 07:28:12;;;;;;;4.60;4.23;;;;;;;28.78;42.53;95308.53;5114234;28;20929;-80
2023/07/09 07:30:43;;;;;;;6.27;3.90;;;;;;;28.72;43.21;95304.06;5112896;28;20435;-79
2023/07/09 07:33:11;;;;;;;5.07;4.57;;;;;;;28.70;44.29;95300.78;5112930;28;20489;-81
2023/07/09 07:35:38;;;;;;;4.93;4.43;;;;;;;28.51;43.57;95294.63;5112677;28;20848;-80
2023/07/09 07:38:06;;;;;;;5.87;4.20;;;;;;;28.76;44.42;95291.72;5113007;28;20443;-81
2023/07/09 07:40:33;;;;;;;4.33;3.93;;;;;;;28.84;42.87;95290.56;5112672;28;20443;-81
2023/07/09 07:43:00;;;;;;;4.43;3.93;;;;;;;28.70;42.50;95292.69;5112593;28;20446;-80
2023/07/09 07:45:27;;;;;;;9.57;4.50;;;;;;;28.46;43.34;95293.69;5112410;28;20893;-81
2023/07/09 07:47:54;;;;;;;4.43;4.03;;;;;;;28.50;43.30;95292.16;5112578;28;20453;-80
2023/07/09 07:50:21;;;;;;;5.03;4.23;;;;;;;28.60;43.42;95290.53;5112550;28;20443;-82
2023/07/09 07:52:48;;;;;;;4.43;4.00;;;;;;;28.69;43.94;95285.63;5112262;28;20446;-81
2023/07/09 07:55:16;;;;;;;4.33;3.97;;;;;;;28.62;41.65;95291.13;5112928;28;20439;-81
2023/07/09 07:57:43;;;;;;;4.53;4.03;;;;;;;28.72;41.58;95295.13;5112768;28;20458;-81
2023/07/09 08:00:11;;;;;;;5.67;4.60;;;;;;;28.71;40.37;95296.19;5112735;28;20439;-80
2023/07/09 08:02:38;;;;;;;3.80;3.50;;;;;;;28.85;40.51;95295.75;5113473;28;20450;-80
2023/07/09 08:05:06;;;;;;;6.07;4.70;;;;;;;29.03;41.96;95285.91;5116098;28;20455;-81
2023/07/09 08:07:33;;;;;;;13.07;4.30;;;;;;;28.96;40.92;95292.25;5116367;28;20443;-81
2023/07/09 08:10:00;;;;;;;4.53;4.10;;;;;;;29.07;40.85;95290.59;5115987;28;20944;-82
2023/07/09 08:12:28;;;;;;;5.77;3.90;;;;;;;28.80;40.56;95287.50;5116358;28;20438;-80
2023/07/09 08:14:55;;;;;;;5.80;4.47;;;;;;;28.66;40.44;95284.22;5116088;28;20450;-81
2023/07/09 08:17:21;;;;;;;5.53;4.37;;;;;;;28.57;41.56;95272.09;5116206;28;20804;-81
2023/07/09 08:19:50;;;;;;;4.20;3.90;;;;;;;28.50;41.70;95276.78;5115958;28;20451;-81
2023/07/09 08:22:20;;;;;;;5.03;4.30;;;;;;;28.65;42.70;95268.25;5115724;28;20445;-80
2023/07/09 08:24:47;;;;;;;4.50;4.17;;;;;;;28.63;43.11;95270.34;5115868;28;20462;-81
2023/07/09 08:27:14;;;;;;;7.30;4.20;;;;;;;28.65;42.25;95268.25;5115796;28;20482;-81
2023/07/09 08:29:42;;;;;;;4.93;4.13;;;;;;;28.66;42.18;95275.28;5115910;28;20442;-80
2023/07/09 08:32:10;;;;;;;7.53;4.90;;;;;;;28.75;42.86;95267.66;5115549;28;20459;-80
2023/07/09 08:34:39;;;;;;;6.07;3.67;;;;;;;28.96;43.81;95270.63;5115890;28;20837;-81
2023/07/09 08:37:08;;;;;;;5.30;4.90;;;;;;;29.01;41.22;95272.63;5116249;28;20862;-81
2023/07/09 08:39:37;;;;;;;6.23;4.77;;;;;;;28.91;41.37;95272.38;5115612;28;20492;-79
2023/07/09 08:42:07;;;;;;;4.80;4.07;;;;;;;28.93;41.87;95270.28;5115258;28;20435;-81
2023/07/09 08:45:02;;;;;;;4.20;3.63;;;;;;;28.80;41.94;95267.78;5062543;28;20439;-81
2023/07/09 08:47:41;;;;;;;6.90;4.57;;;;;;;28.99;42.03;95266.66;5115256;28;20529;-82
2023/07/09 08:50:12;;;;;;;5.37;4.87;;;;;;;29.05;41.80;95263.00;5115081;28;20806;-81
2023/07/09 08:52:41;;;;;;;5.10;4.60;;;;;;;28.94;41.90;95267.34;5096174;28;20447;-80
2023/07/09 08:55:12;;;;;;;5.00;4.47;;;;;;;28.96;41.52;95265.25;5115198;28;20447;-80
2023/07/09 08:57:42;;;;;;;4.80;4.30;;;;;;;28.98;41.92;95265.81;5115023;28;20778;-80
2023/07/09 09:00:17;;;;;;;4.87;4.37;;;;;;;28.90;41.95;95263.44;5115049;28;20474;-80
2023/07/09 09:02:50;;;;;;;4.63;4.20;;;;;;;28.84;42.32;95267.06;5115016;28;20909;-81
2023/07/09 09:05:20;;;;;;;5.63;4.90;;;;;;;28.97;42.79;95256.06;5114995;28;20809;-81
2023/07/09 09:07:53;;;;;;;5.93;5.30;;;;;;;28.93;44.20;95271.13;5115127;28;20636;-79
2023/07/09 09:10:30;;;;;;;5.67;5.00;;;;;;;28.94;43.29;95272.75;5115223;28;20443;-80
2023/07/09 09:13:11;;;;;;;7.50;4.87;;;;;;;29.01;43.17;95264.53;5114559;28;20474;-81
2023/07/09 09:15:42;;;;;;;4.87;4.47;;;;;;;28.99;43.70;95275.56;5114683;28;20458;-81
2023/07/09 09:18:22;;;;;;;6.60;5.13;;;;;;;28.87;43.77;95263.94;5114896;28;20443;-80
2023/07/09 09:20:57;;;;;;;7.73;5.33;;;;;;;28.90;43.76;95265.34;5114750;28;20443;-81
2023/07/09 09:23:30;;;;;;;6.17;5.57;;;;;;;28.83;44.00;95260.03;5115114;28;20435;-80
2023/07/09 09:25:58;;;;;;;5.87;5.33;;;;;;;28.81;44.28;95261.31;5114376;28;20501;-80
2023/07/09 09:28:28;;;;;;;7.07;5.37;;;;;;;28.82;43.72;95260.25;5114426;28;20451;-80
2023/07/09 09:30:56;;;;;;;7.67;5.13;;;;;;;28.77;43.50;95258.25;5114640;28;20443;-81
2023/07/09 09:33:23;;;;;;;8.40;5.37;;;;;;;28.66;44.47;95251.81;5114582;28;20446;-81
2023/07/09 09:35:50;;;;;;;5.40;4.90;;;;;;;28.68;44.50;95260.50;5114113;28;20486;-80
2023/07/09 09:38:22;;;;;;;6.20;4.60;;;;;;;28.69;44.37;95261.31;5114399;28;20455;-79
2023/07/09 09:40:49;;;;;;;6.63;5.47;;;;;;;28.57;44.05;95252.38;5114579;28;20471;-80
2023/07/09 09:43:19;;;;;;;7.93;5.17;;;;;;;28.67;45.76;95248.03;5114317;28;20449;-80
2023/07/09 09:45:49;;;;;;;6.43;5.83;;;;;;;28.65;45.38;95247.47;5114200;28;20485;-81
2023/07/09 09:48:19;;;;;;;8.57;5.10;;;;;;;28.46;44.23;95253.19;5114217;28;20783;-79
2023/07/09 09:50:47;;;;;;;8.93;4.97;;;;;;;28.27;44.94;95250.53;5113947;28;20443;-80
2023/07/09 09:53:20;;;;;;;6.00;5.17;;;;;;;28.26;44.88;95231.88;5113874;28;20450;-78
2023/07/09 09:55:48;;;;;;;5.17;4.70;;;;;;;28.27;44.67;95239.75;5113909;28;20477;-80
2023/07/09 09:58:17;;;;;;;8.13;4.60;;;;;;;28.21;45.21;95234.44;5078022;28;20516;-81
2023/07/09 10:00:51;;;;;;;7.07;5.30;;;;;;;28.23;45.12;95237.72;5113879;28;20811;-80
2023/07/09 10:03:20;;;;;;;5.60;5.20;;;;;;;28.12;45.46;95233.94;5113866;28;20467;-80
2023/07/09 10:05:53;;;;;;;5.43;4.93;;;;;;;28.08;45.92;95238.16;5115445;28;20942;-81
2023/07/09 10:08:34;;;;;;;4.93;4.47;;;;;;;27.93;45.10;95237.75;5114042;28;20439;-80
2023/07/09 10:11:15;;;;;;;5.33;4.83;;;;;;;27.90;44.93;95233.63;5114356;28;20984;-78
2023/07/09 10:13:45;;;;;;;6.43;5.37;;;;;;;27.85;46.42;95232.69;5080264;28;20454;-79
2023/07/09 10:16:20;;;;;;;5.87;5.37;;;;;;;27.82;45.60;95225.06;5113550;28;20493;-81
2023/07/09 10:18:57;;;;;;;5.20;4.67;;;;;;;27.69;45.40;95232.25;5113941;28;20438;-81
2023/07/09 10:21:34;;;;;;;5.20;4.73;;;;;;;27.58;46.29;95230.31;5119224;28;20438;-80
2023/07/09 10:24:14;;;;;;;6.00;5.10;;;;;;;27.68;45.45;95222.53;5120953;28;20454;-80
2023/07/09 10:26:47;;;;;;;5.53;5.03;;;;;;;27.76;45.97;95213.31;5119440;28;20487;-81
2023/07/09 10:29:33;;;;;;;7.23;5.60;;;;;;;27.84;46.65;95217.56;5118864;28;20442;-81
2023/07/09 10:32:08;;;;;;;5.63;5.10;;;;;;;27.82;45.35;95219.66;5116943;28;20442;-80
2023/07/09 10:34:50;;;;;;;5.00;4.50;;;;;;;27.64;45.79;95215.94;5115360;28;20461;-79
2023/07/09 10:37:32;;;;;;;7.87;4.87;;;;;;;27.65;45.10;95219.47;5074320;28;20456;-80
2023/07/09 10:40:00;;;;;;;5.67;5.17;;;;;;;27.77;45.08;95218.47;5073843;28;20785;-80
2023/07/09 10:42:31;;;;;;;4.10;3.80;;;;;;;27.81;44.21;95212.63;5073924;28;20433;-80
2023/07/09 10:45:03;;;;;;;7.17;4.60;;;;;;;27.81;44.79;95209.91;5073399;28;20440;-81
2023/07/09 10:47:45;;;;;;;7.90;5.10;;;;;;;27.84;45.09;95214.84;5074554;28;20484;-80
2023/07/09 10:50:19;;;;;;;9.20;4.43;;;;;;;27.79;44.37;95199.38;5055161;28;20939;-80
2023/07/09 10:52:50;;;;;;;7.87;4.63;;;;;;;27.63;44.70;95206.22;5073838;28;20452;-80
2023/07/09 10:55:23;;;;;;;7.87;4.60;;;;;;;27.77;44.83;95207.69;5073442;28;20820;-80
2023/07/09 10:57:58;;;;;;;5.60;5.10;;;;;;;27.79;43.92;95198.53;5073250;28;20452;-80
2023/07/09 11:00:33;;;;;;;4.77;4.30;;;;;;;27.84;45.11;95196.78;5075037;28;20443;-81
2023/07/09 11:03:04;;;;;;;7.20;4.60;;;;;;;27.80;42.73;95200.19;5073025;28;20443;-79
2023/07/09 11:05:34;;;;;;;4.90;4.40;;;;;;;27.82;41.57;95206.16;5073475;28;20810;-80
2023/07/09 11:08:06;;;;;;;5.13;4.63;;;;;;;27.79;42.17;95203.94;5072670;28;20490;-80
2023/07/09 11:10:38;;;;;;;4.30;4.00;;;;;;;27.81;42.66;95209.91;5072510;28;20437;-80
2023/07/09 11:13:11;;;;;;;5.43;4.93;;;;;;;27.96;41.78;95213.00;5072421;28;20449;-80
2023/07/09 11:15:43;;;;;;;4.90;4.30;;;;;;;28.08;43.50;95208.47;5072227;28;20445;-79
2023/07/09 11:18:26;;;;;;;4.80;4.40;;;;;;;28.09;42.73;95199.34;5072530;28;20452;-80
2023/07/09 11:21:01;;;;;;;4.30;3.90;;;;;;;28.05;41.62;95207.06;5072357;28;20437;-81
2023/07/09 11:23:45;;;;;;;5.10;4.60;;;;;;;27.92;40.92;95193.75;5072382;28;20443;-80
2023/07/09 11:26:15;;;;;;;4.23;3.93;;;;;;;27.95;40.74;95203.25;5072590;28;20448;-81
2023/07/09 11:28:48;;;;;;;4.17;3.77;;;;;;;27.97;43.05;95206.56;5073206;28;20440;-80
2023/07/09 11:31:23;;;;;;;4.63;4.23;;;;;;;28.09;42.01;95204.72;5072256;28;20444;-80
2023/07/09 11:34:00;;;;;;;7.53;3.50;;;;;;;28.09;40.05;95202.03;5072515;28;20451;-81
2023/07/09 11:36:31;;;;;;;8.20;4.50;;;;;;;28.17;41.04;95193.59;5100255;28;20485;-80
2023/07/09 11:38:58;;;;;;;4.43;4.00;;;;;;;28.17;40.10;95196.28;5116833;28;20469;-80
2023/07/09 11:41:41;;;;;;;4.77;4.37;;;;;;;28.13;39.29;95197.81;5116882;28;20446;-81
2023/07/09 11:44:17;;;;;;;4.50;4.10;;;;;;;28.03;39.64;95197.53;5116985;28;20443;-80
2023/07/09 11:47:00;;;;;;;5.50;3.97;;;;;;;28.05;40.30;95192.75;5116710;28;20487;-81
2023/07/09 11:49:33;;;;;;;6.00;4.10;;;;;;;28.00;39.11;95189.91;5080578;28;20442;-80
2023/07/09 11:52:06;;;;;;;4.20;3.37;;;;;;;28.06;39.16;95189.00;5116717;28;20435;-81
2023/07/09 11:54:36;;;;;;;6.93;3.93;;;;;;;28.09;40.30;95188.53;5064214;28;20483;-79
2023/07/09 11:57:03;;;;;;;4.37;3.80;;;;;;;28.08;40.20;95179.63;5116496;28;20499;-81
2023/07/09 11:59:30;;;;;;;4.57;4.10;;;;;;;28.08;40.92;95184.19;5081074;28;20443;-80
2023/07/09 12:02:00;;;;;;;4.93;4.50;;;;;;;28.08;40.74;95182.31;5116492;28;20439;-80
2023/07/09 12:04:34;;;;;;;6.10;4.37;;;;;;;28.12;41.32;95182.66;5116433;28;20449;-80
2023/07/09 12:07:02;;;;;;;4.80;4.40;;;;;;;28.14;43.13;95182.44;5116751;28;20817;-79
2023/07/09 12:09:38;;;;;;;4.50;4.10;;;;;;;28.23;43.06;95184.56;5116485;28;20435;-80
2023/07/09 12:12:06;;;;;;;3.93;3.53;;;;;;;28.15;40.75;95184.09;5116851;28;20438;-81